createdAt,value
2024-04-05T00:00:56.124Z,359.10
2024-04-05T00:01:56.330Z,360.67
2024-04-05T00:02:56.288Z,357.16
2024-04-05T00:03:56.500Z,358.33
2024-04-05T00:04:56.460Z,358.33
2024-04-05T00:05:56.543Z,358.71
2024-04-05T00:06:56.640Z,359.10
2024-04-05T00:07:56.718Z,359.10
2024-04-05T00:08:56.800Z,358.71
2024-04-05T00:09:56.902Z,358.71
2024-04-05T00:10:56.945Z,361.46
2024-04-05T00:11:57.037Z,360.28
2024-04-05T00:13:01.673Z,358.33
2024-04-05T00:13:57.188Z,360.28
2024-04-05T00:14:57.390Z,359.10
2024-04-05T00:15:57.375Z,359.10
2024-04-05T00:16:57.457Z,359.10
2024-04-05T00:17:57.547Z,359.89
2024-04-05T00:18:57.644Z,358.71
2024-04-05T00:19:57.716Z,359.89
2024-04-05T00:20:57.797Z,359.49
2024-04-05T00:21:57.908Z,361.46
2024-04-05T00:22:57.959Z,359.10
2024-04-05T00:23:58.042Z,361.07
2024-04-05T00:24:58.130Z,359.49
2024-04-05T00:25:58.208Z,359.10
2024-04-05T00:26:58.292Z,359.49
2024-04-05T00:27:58.395Z,357.55
2024-04-05T00:28:58.462Z,360.67
2024-04-05T00:29:58.546Z,359.89
2024-04-05T00:30:58.616Z,358.33
2024-04-05T00:31:58.688Z,359.10
2024-04-05T00:32:58.769Z,359.10
2024-04-05T00:33:58.859Z,360.28
2024-04-05T00:34:58.941Z,360.28
2024-04-05T00:35:59.040Z,358.71
2024-04-05T00:36:59.117Z,358.71
2024-04-05T00:37:59.235Z,360.28
2024-04-05T00:38:59.317Z,359.89
2024-04-05T00:39:59.362Z,359.49
2024-04-05T00:40:59.448Z,358.71
2024-04-05T00:41:59.525Z,361.46
2024-04-05T00:42:59.597Z,361.46
2024-04-05T00:43:59.669Z,363.05
2024-04-05T00:44:59.765Z,360.67
2024-04-05T00:45:59.824Z,360.67
2024-04-05T00:46:59.887Z,359.49
2024-04-05T00:47:59.970Z,361.07
2024-04-05T00:49:00.056Z,361.07
2024-04-05T00:50:00.171Z,361.86
2024-04-05T00:51:00.214Z,360.28
2024-04-05T00:52:00.279Z,360.67
2024-04-05T00:53:00.374Z,359.89
2024-04-05T00:54:00.454Z,360.28
2024-04-05T00:55:00.537Z,357.94
2024-04-05T00:56:00.649Z,359.89
2024-04-05T00:57:00.679Z,359.89
2024-04-05T00:58:00.753Z,361.46
2024-04-05T00:59:00.840Z,359.89
2024-04-05T01:00:00.917Z,362.25
2024-04-05T01:01:01.015Z,358.33
2024-04-05T01:02:01.083Z,357.94
2024-04-05T01:03:01.168Z,361.46
2024-04-05T01:04:01.252Z,359.49
2024-04-05T01:05:01.340Z,359.89
2024-04-05T01:06:01.439Z,361.07
2024-04-05T01:07:01.548Z,362.65
2024-04-05T01:08:01.598Z,358.33
2024-04-05T01:09:01.723Z,361.07
2024-04-05T01:10:01.775Z,360.28
2024-04-05T01:11:01.867Z,359.10
2024-04-05T01:12:01.969Z,360.67
2024-04-05T01:13:02.039Z,358.33
2024-04-05T01:14:02.119Z,361.86
2024-04-05T01:15:02.205Z,361.07
2024-04-05T01:16:02.288Z,360.28
2024-04-05T01:17:02.362Z,362.25
2024-04-05T01:18:02.446Z,358.33
2024-04-05T01:19:02.539Z,359.89
2024-04-05T01:20:02.602Z,360.67
2024-04-05T01:21:02.684Z,360.67
2024-04-05T01:22:02.762Z,361.46
2024-04-05T01:23:02.855Z,361.46
2024-04-05T01:24:03.068Z,360.67
2024-04-05T01:25:03.028Z,361.46
2024-04-05T01:26:03.106Z,361.07
2024-04-05T01:27:03.188Z,361.07
2024-04-05T01:28:03.279Z,360.67
2024-04-05T01:29:03.367Z,358.33
2024-04-05T01:30:03.452Z,361.07
2024-04-05T01:31:03.536Z,360.28
2024-04-05T01:32:03.610Z,358.33
2024-04-05T01:33:03.682Z,359.49
2024-04-05T01:34:03.753Z,361.86
2024-04-05T01:35:03.841Z,361.46
2024-04-05T01:36:03.949Z,360.28
2024-04-05T01:37:04.011Z,360.28
2024-04-05T01:38:04.114Z,359.49
2024-04-05T01:39:04.175Z,361.46
2024-04-05T01:40:04.886Z,361.07
2024-04-05T01:41:04.327Z,361.07
2024-04-05T01:42:04.442Z,360.28
2024-04-05T01:43:04.538Z,360.67
2024-04-05T01:44:04.595Z,362.25
2024-04-05T01:45:04.681Z,360.28
2024-04-05T01:46:04.771Z,361.86
2024-04-05T01:47:04.854Z,361.46
2024-04-05T01:48:04.995Z,360.28
2024-04-05T01:49:04.999Z,361.46
2024-04-05T01:50:05.087Z,361.07
2024-04-05T01:51:05.151Z,361.86
2024-04-05T01:52:05.223Z,360.67
2024-04-05T01:53:05.308Z,361.46
2024-04-05T01:54:05.403Z,360.67
2024-04-05T01:55:05.462Z,361.07
2024-04-05T01:56:05.547Z,361.07
2024-04-05T01:57:05.632Z,361.07
2024-04-05T01:58:05.723Z,359.49
2024-04-05T01:59:05.808Z,361.46
2024-04-05T02:00:05.874Z,361.86
2024-04-05T02:01:05.963Z,361.07
2024-04-05T02:02:06.056Z,363.05
2024-04-05T02:03:06.139Z,359.89
2024-04-05T02:04:06.223Z,360.67
2024-04-05T02:05:06.317Z,358.71
2024-04-05T02:06:06.399Z,362.25
2024-04-05T02:07:06.466Z,361.07
2024-04-05T02:08:06.558Z,361.46
2024-04-05T02:09:06.626Z,362.25
2024-04-05T02:10:06.741Z,361.07
2024-04-05T02:11:06.804Z,359.49
2024-04-05T02:12:06.900Z,360.67
2024-04-05T02:13:06.957Z,361.46
2024-04-05T02:14:07.060Z,361.46
2024-04-05T02:15:07.141Z,362.65
2024-04-05T02:16:07.216Z,362.25
2024-04-05T02:17:07.320Z,362.65
2024-04-05T02:18:07.418Z,360.28
2024-04-05T02:19:07.479Z,362.25
2024-04-05T02:20:07.578Z,362.25
2024-04-05T02:21:07.640Z,362.25
2024-04-05T02:22:07.703Z,362.25
2024-04-05T02:23:07.781Z,359.49
2024-04-05T02:24:07.983Z,361.46
2024-04-05T02:25:07.952Z,361.86
2024-04-05T02:26:08.038Z,360.67
2024-04-05T02:27:08.110Z,360.67
2024-04-05T02:28:08.169Z,360.67
2024-04-05T02:29:08.265Z,363.05
2024-04-05T02:30:08.354Z,361.46
2024-04-05T02:31:08.438Z,361.86
2024-04-05T02:32:08.522Z,361.86
2024-04-05T02:33:08.584Z,361.46
2024-04-05T02:34:08.670Z,363.05
2024-04-05T02:35:08.761Z,363.05
2024-04-05T02:36:08.866Z,361.86
2024-04-05T02:37:08.922Z,363.05
2024-04-05T02:38:08.999Z,361.07
2024-04-05T02:39:09.073Z,361.46
2024-04-05T02:40:09.152Z,362.65
2024-04-05T02:41:09.279Z,361.07
2024-04-05T02:42:09.332Z,362.25
2024-04-05T02:43:09.437Z,363.45
2024-04-05T02:44:09.524Z,362.25
2024-04-05T02:45:09.557Z,362.65
2024-04-05T02:46:09.642Z,359.89
2024-04-05T02:47:09.767Z,363.05
2024-04-05T02:48:09.807Z,362.25
2024-04-05T02:49:09.882Z,363.05
2024-04-05T02:50:09.964Z,363.05
2024-04-05T02:51:10.052Z,362.65
2024-04-05T02:52:10.150Z,361.07
2024-04-05T02:53:10.188Z,363.05
2024-04-05T02:54:10.263Z,361.86
2024-04-05T02:55:10.330Z,361.86
2024-04-05T02:56:10.400Z,361.46
2024-04-05T02:57:10.482Z,360.67
2024-04-05T02:58:10.577Z,363.05
2024-04-05T02:59:10.649Z,362.25
2024-04-05T03:00:10.726Z,362.25
2024-04-05T03:01:10.871Z,364.25
2024-04-05T03:02:10.900Z,362.65
2024-04-05T03:03:11.027Z,362.65
2024-04-05T03:04:11.064Z,362.25
2024-04-05T03:05:11.141Z,361.46
2024-04-05T03:06:11.228Z,361.86
2024-04-05T03:07:11.308Z,361.46
2024-04-05T03:08:11.387Z,363.85
2024-04-05T03:09:11.484Z,362.65
2024-04-05T03:10:11.582Z,362.65
2024-04-05T03:11:11.678Z,362.65
2024-04-05T03:12:11.720Z,361.86
2024-04-05T03:13:11.807Z,361.86
2024-04-05T03:14:11.895Z,361.07
2024-04-05T03:15:11.945Z,363.45
2024-04-05T03:17:26.899Z,419.37
2024-04-05T03:18:29.420Z,411.91
2024-04-05T03:19:28.031Z,404.96
2024-04-05T03:20:28.125Z,402.77
2024-04-05T03:21:28.199Z,398.95
2024-04-05T03:22:28.267Z,393.80
2024-04-05T03:23:28.349Z,394.96
2024-04-05T03:24:28.431Z,391.05
2024-04-05T03:25:28.532Z,390.60
2024-04-05T03:26:28.572Z,388.34
2024-04-05T03:27:28.649Z,386.55
2024-04-05T03:28:28.763Z,385.22
2024-04-05T03:29:28.802Z,385.22
2024-04-05T03:30:28.909Z,386.33
2024-04-05T03:31:28.954Z,381.72
2024-04-05T03:32:29.034Z,383.03
2024-04-05T03:33:29.126Z,383.03
2024-04-05T03:34:29.198Z,381.72
2024-04-05T03:35:29.294Z,380.85
2024-04-05T03:36:29.390Z,381.07
2024-04-05T03:37:29.453Z,378.92
2024-04-05T03:38:29.530Z,376.70
2024-04-05T03:39:29.614Z,376.70
2024-04-05T03:40:29.712Z,373.72
2024-04-05T03:41:29.775Z,373.72
2024-04-05T03:42:29.884Z,373.72
2024-04-05T03:43:29.927Z,373.30
2024-04-05T03:44:30.003Z,373.72
2024-04-05T03:45:30.075Z,375.42
2024-04-05T03:46:30.160Z,373.30
2024-04-05T03:47:30.240Z,374.14
2024-04-05T03:48:30.501Z,373.72
2024-04-05T03:49:30.398Z,372.88
2024-04-05T03:50:30.482Z,373.30
2024-04-05T03:51:30.566Z,371.20
2024-04-05T03:52:30.656Z,372.04
2024-04-05T03:53:30.733Z,372.46
2024-04-05T03:54:30.821Z,372.04
2024-04-05T03:55:30.900Z,372.46
2024-04-05T03:56:30.959Z,371.62
2024-04-05T03:57:31.115Z,369.95
2024-04-05T03:58:31.144Z,371.62
2024-04-05T03:59:31.348Z,371.62
2024-04-05T04:00:31.314Z,370.79
2024-04-05T04:01:31.384Z,369.13
2024-04-05T04:02:31.474Z,368.31
2024-04-05T04:03:31.551Z,369.13
2024-04-05T04:04:31.635Z,370.79
2024-04-05T04:05:31.739Z,370.79
2024-04-05T04:06:31.818Z,369.54
2024-04-05T04:07:31.911Z,369.95
2024-04-05T04:08:31.998Z,369.13
2024-04-05T04:09:34.650Z,369.54
2024-04-05T04:10:32.159Z,367.90
2024-04-05T04:11:32.225Z,369.95
2024-04-05T04:12:32.307Z,366.67
2024-04-05T04:13:32.390Z,368.31
2024-04-05T04:14:32.460Z,368.72
2024-04-05T04:15:32.539Z,370.37
2024-04-05T04:16:32.646Z,367.49
2024-04-05T04:17:32.721Z,369.54
2024-04-05T04:18:32.804Z,368.31
2024-04-05T04:19:32.875Z,368.31
2024-04-05T04:20:32.959Z,367.08
2024-04-05T04:21:33.048Z,368.31
2024-04-05T04:22:33.121Z,366.67
2024-04-05T04:23:33.208Z,368.31
2024-04-05T04:24:33.283Z,365.86
2024-04-05T04:25:33.362Z,368.72
2024-04-05T04:26:33.435Z,368.31
2024-04-05T04:27:33.646Z,367.08
2024-04-05T04:28:33.603Z,366.27
2024-04-05T04:29:33.680Z,367.49
2024-04-05T04:30:33.751Z,365.86
2024-04-05T04:31:33.836Z,367.90
2024-04-05T04:32:33.946Z,368.72
2024-04-05T04:33:34.015Z,367.49
2024-04-05T04:34:34.101Z,366.27
2024-04-05T04:35:34.168Z,368.72
2024-04-05T04:36:34.323Z,366.27
2024-04-05T04:37:34.384Z,369.13
2024-04-05T04:38:34.401Z,368.31
2024-04-05T04:39:34.463Z,369.13
2024-04-05T04:40:34.552Z,368.31
2024-04-05T04:41:34.625Z,368.72
2024-04-05T04:42:34.703Z,365.46
2024-04-05T04:43:34.782Z,367.08
2024-04-05T04:44:34.879Z,367.08
2024-04-05T04:45:34.962Z,365.86
2024-04-05T04:46:35.060Z,366.27
2024-04-05T04:47:35.231Z,367.90
2024-04-05T04:48:35.219Z,367.90
2024-04-05T04:49:35.309Z,365.05
2024-04-05T04:50:35.440Z,367.90
2024-04-05T04:51:35.503Z,368.72
2024-04-05T04:52:35.567Z,368.31
2024-04-05T04:53:35.652Z,367.08
2024-04-05T04:54:35.726Z,367.49
2024-04-05T04:55:37.261Z,367.49
2024-04-05T04:56:35.882Z,367.90
2024-04-05T04:57:35.962Z,366.27
2024-04-05T04:58:36.047Z,367.90
2024-04-05T04:59:36.121Z,367.49
2024-04-05T05:00:36.229Z,367.49
2024-04-05T05:01:36.310Z,367.08
2024-04-05T05:02:36.410Z,369.54
2024-04-05T05:03:36.459Z,367.49
2024-04-05T05:04:36.547Z,369.13
2024-04-05T05:05:36.624Z,366.67
2024-04-05T05:06:36.701Z,367.49
2024-04-05T05:07:36.788Z,367.90
2024-04-05T05:08:36.986Z,368.31
2024-04-05T05:09:36.960Z,366.27
2024-04-05T05:10:37.046Z,367.08
2024-04-05T05:11:37.123Z,365.46
2024-04-05T05:12:37.210Z,367.49
2024-04-05T05:13:37.326Z,367.08
2024-04-05T05:14:37.383Z,368.72
2024-04-05T05:15:37.457Z,366.67
2024-04-05T05:16:37.587Z,365.46
2024-04-05T05:17:37.628Z,366.67
2024-04-05T05:18:37.699Z,365.86
2024-04-05T05:19:37.762Z,365.86
2024-04-05T05:20:37.868Z,366.67
2024-04-05T05:21:37.914Z,363.85
2024-04-05T05:22:38.008Z,366.27
2024-04-05T05:23:38.075Z,363.05
2024-04-05T05:24:38.154Z,365.46
2024-04-05T05:25:38.304Z,365.46
2024-04-05T05:26:38.318Z,365.86
2024-04-05T05:27:38.400Z,364.65
2024-04-05T05:28:38.516Z,365.05
2024-04-05T05:29:38.557Z,365.46
2024-04-05T05:30:38.661Z,365.46
2024-04-05T05:31:38.777Z,367.08
2024-04-05T05:32:38.855Z,366.27
2024-04-05T05:33:38.917Z,364.65
2024-04-05T05:34:39.000Z,365.05
2024-04-05T05:35:39.070Z,361.46
2024-04-05T05:36:39.166Z,363.45
2024-04-05T05:37:39.805Z,364.65
2024-04-05T05:38:39.287Z,363.85
2024-04-05T05:39:39.374Z,363.05
2024-04-05T05:40:39.450Z,363.45
2024-04-05T05:41:39.542Z,361.86
2024-04-05T05:42:39.738Z,364.25
2024-04-05T05:43:39.695Z,362.25
2024-04-05T05:44:39.776Z,363.85
2024-04-05T05:45:42.131Z,362.65
2024-04-05T05:46:39.963Z,361.86
2024-04-05T05:47:40.049Z,361.86
2024-04-05T05:48:40.119Z,361.46
2024-04-05T05:49:40.201Z,361.86
2024-04-05T05:50:40.289Z,361.07
2024-04-05T05:51:40.370Z,361.46
2024-04-05T05:52:40.517Z,362.25
2024-04-05T05:53:40.509Z,360.67
2024-04-05T05:54:40.551Z,361.07
2024-04-05T05:55:40.621Z,359.89
2024-04-05T05:56:40.695Z,360.67
2024-04-05T05:57:40.781Z,358.71
2024-04-05T05:58:40.857Z,358.71
2024-04-05T05:59:40.970Z,357.94
2024-04-05T06:00:41.008Z,360.28
2024-04-05T06:01:41.106Z,357.94
2024-04-05T06:02:41.165Z,358.33
2024-04-05T06:03:41.243Z,358.33
2024-04-05T06:04:41.337Z,358.33
2024-04-05T06:05:41.539Z,357.94
2024-04-05T06:06:41.505Z,359.89
2024-04-05T06:07:41.584Z,356.78
2024-04-05T06:08:41.668Z,357.94
2024-04-05T06:09:41.764Z,358.33
2024-04-05T06:10:41.846Z,357.55
2024-04-05T06:11:41.948Z,357.94
2024-04-05T06:12:42.006Z,357.55
2024-04-05T06:13:42.079Z,360.28
2024-04-05T06:14:42.189Z,357.94
2024-04-05T06:15:42.227Z,357.55
2024-04-05T06:16:42.313Z,357.16
2024-04-05T06:17:42.398Z,357.16
2024-04-05T06:18:42.525Z,357.16
2024-04-05T06:19:42.567Z,358.33
2024-04-05T06:20:42.647Z,360.67
2024-04-05T06:21:42.726Z,360.67
2024-04-05T06:22:42.810Z,358.71
2024-04-05T06:23:42.895Z,358.71
2024-04-05T06:24:42.970Z,360.28
2024-04-05T06:25:43.060Z,358.33
2024-04-05T06:26:43.131Z,361.07
2024-04-05T06:27:43.205Z,361.86
2024-04-05T06:28:43.295Z,359.10
2024-04-05T06:29:43.393Z,361.46
2024-04-05T06:30:43.469Z,357.94
2024-04-05T06:31:43.564Z,359.49
2024-04-05T06:32:43.632Z,357.55
2024-04-05T06:33:43.698Z,357.55
2024-04-05T06:34:43.773Z,359.89
2024-04-05T06:35:43.867Z,357.94
2024-04-05T06:36:43.919Z,357.55
2024-04-05T06:37:44.003Z,357.16
2024-04-05T06:38:44.078Z,358.33
2024-04-05T06:39:44.154Z,356.78
2024-04-05T06:40:44.276Z,357.16
2024-04-05T06:41:44.290Z,355.63
2024-04-05T06:42:44.368Z,355.63
2024-04-05T06:43:44.469Z,355.24
2024-04-05T06:44:44.521Z,355.63
2024-04-05T06:45:44.605Z,356.39
2024-04-05T06:46:44.836Z,355.24
2024-04-05T06:47:44.783Z,354.86
2024-04-05T06:48:44.873Z,353.72
2024-04-05T06:49:45.042Z,356.01
2024-04-05T06:50:45.020Z,354.10
2024-04-05T06:51:45.112Z,357.55
2024-04-05T06:52:45.194Z,355.24
2024-04-05T06:53:45.258Z,355.63
2024-04-05T06:54:45.331Z,356.78
2024-04-05T06:55:45.458Z,354.48
2024-04-05T06:56:45.506Z,353.72
2024-04-05T06:57:45.613Z,355.24
2024-04-05T06:58:45.704Z,355.63
2024-04-05T06:59:45.774Z,353.35
2024-04-05T07:00:45.837Z,354.86
2024-04-05T07:01:45.910Z,354.10
2024-04-05T07:02:45.995Z,353.72
2024-04-05T07:03:46.077Z,352.59
2024-04-05T07:04:46.152Z,353.72
2024-04-05T07:05:46.241Z,353.72
2024-04-05T07:06:46.322Z,351.84
2024-04-05T07:07:46.435Z,353.72
2024-04-05T07:08:46.506Z,353.35
2024-04-05T07:09:46.547Z,352.97
2024-04-05T07:10:50.224Z,353.72
2024-04-05T07:11:46.737Z,354.86
2024-04-05T07:12:46.823Z,354.48
2024-04-05T07:13:46.921Z,354.86
2024-04-05T07:14:47.023Z,356.01
2024-04-05T07:15:47.061Z,355.24
2024-04-05T07:16:47.176Z,355.63
2024-04-05T07:17:47.240Z,358.71
2024-04-05T07:18:47.330Z,356.39
2024-04-05T07:19:47.450Z,358.33
2024-04-05T07:20:47.486Z,357.55
2024-04-05T07:21:47.570Z,357.16
2024-04-05T07:22:47.743Z,358.71
2024-04-05T07:23:47.732Z,359.49
2024-04-05T07:24:47.819Z,359.10
2024-04-05T07:25:47.910Z,357.55
2024-04-05T07:26:47.982Z,356.78
2024-04-05T07:27:48.055Z,358.71
2024-04-05T07:28:48.144Z,359.49
2024-04-05T07:29:48.211Z,358.33
2024-04-05T07:30:48.298Z,357.16
2024-04-05T07:31:48.518Z,361.46
2024-04-05T07:32:48.460Z,359.10
2024-04-05T07:33:48.554Z,359.10
2024-04-05T07:34:48.709Z,359.10
2024-04-05T07:35:48.734Z,358.71
2024-04-05T07:36:48.813Z,358.33
2024-04-05T07:37:48.941Z,358.33
2024-04-05T07:38:48.971Z,359.49
2024-04-05T07:39:49.049Z,359.10
2024-04-05T07:40:49.134Z,357.16
2024-04-05T07:41:49.212Z,359.89
2024-04-05T07:42:50.586Z,357.55
2024-04-05T07:43:49.437Z,358.71
2024-04-05T07:44:49.472Z,359.89
2024-04-05T07:45:49.547Z,359.49
2024-04-05T07:46:49.662Z,355.24
2024-04-05T07:47:49.715Z,358.71
2024-04-05T07:48:51.845Z,358.71
2024-04-05T07:49:49.969Z,357.94
2024-04-05T07:50:49.951Z,358.33
2024-04-05T07:51:50.033Z,360.67
2024-04-05T07:52:50.144Z,361.46
2024-04-05T07:53:50.168Z,355.63
2024-04-05T07:54:50.399Z,361.46
2024-04-05T07:55:50.366Z,358.71
2024-04-05T07:56:56.138Z,357.16
2024-04-05T07:57:50.481Z,355.63
2024-04-05T07:58:50.571Z,356.78
2024-04-05T07:59:50.645Z,356.78
2024-04-05T08:00:50.736Z,355.24
2024-04-05T08:01:50.903Z,356.39
2024-04-05T08:02:50.898Z,357.55
2024-04-05T08:03:50.985Z,355.63
2024-04-05T08:04:51.116Z,356.39
2024-04-05T08:05:51.161Z,354.48
2024-04-05T08:06:53.838Z,357.16
2024-04-05T08:07:51.317Z,355.24
2024-04-05T08:08:51.381Z,355.24
2024-04-05T08:09:51.477Z,354.10
2024-04-05T08:10:51.575Z,354.10
2024-04-05T08:11:51.645Z,357.16
2024-04-05T08:12:51.735Z,355.24
2024-04-05T08:13:51.839Z,355.24
2024-04-05T08:14:51.895Z,354.10
2024-04-05T08:15:51.988Z,355.63
2024-04-05T08:16:52.084Z,355.63
2024-04-05T08:17:52.170Z,354.48
2024-04-05T08:18:54.791Z,354.10
2024-04-05T08:19:52.295Z,354.10
2024-04-05T08:20:52.405Z,354.10
2024-04-05T08:21:52.487Z,352.97
2024-04-05T08:22:52.525Z,353.72
2024-04-05T08:23:52.615Z,354.10
2024-04-05T08:24:55.679Z,354.10
2024-04-05T08:25:52.816Z,352.22
2024-04-05T08:26:52.850Z,352.59
2024-04-05T08:27:52.929Z,352.59
2024-04-05T08:28:53.065Z,352.22
2024-04-05T08:29:53.085Z,352.97
2024-04-05T08:30:55.392Z,352.97
2024-04-05T08:31:53.244Z,352.97
2024-04-05T08:32:53.321Z,353.35
2024-04-05T08:33:53.412Z,352.59
2024-04-05T08:34:53.515Z,354.86
2024-04-05T08:35:53.592Z,352.59
2024-04-05T08:36:55.720Z,352.59
2024-04-05T08:37:53.824Z,353.35
2024-04-05T08:38:53.834Z,352.97
2024-04-05T08:39:53.934Z,350.72
2024-04-05T08:40:54.006Z,351.84
2024-04-05T08:41:54.049Z,351.10
2024-04-05T08:42:54.177Z,352.22
2024-04-05T08:43:54.279Z,350.72
2024-04-05T08:44:54.326Z,351.47
2024-04-05T08:45:54.544Z,349.98
2024-04-05T08:46:54.472Z,350.35
2024-04-05T08:47:54.570Z,352.22
2024-04-05T08:48:54.652Z,352.59
2024-04-05T08:49:54.739Z,353.72
2024-04-05T08:50:54.807Z,351.10
2024-04-05T08:51:55.016Z,352.59
2024-04-05T08:52:55.039Z,352.59
2024-04-05T08:53:55.074Z,352.97
2024-04-05T08:54:55.158Z,352.22
2024-04-05T08:55:55.265Z,354.10
2024-04-05T08:56:55.318Z,355.24
2024-04-05T08:57:55.426Z,354.48
2024-04-05T08:58:55.491Z,355.24
2024-04-05T08:59:55.552Z,355.24
2024-04-05T09:00:55.628Z,355.63
2024-04-05T09:01:55.745Z,354.86
2024-04-05T09:02:55.789Z,356.39
2024-04-05T09:03:55.898Z,356.39
2024-04-05T09:04:55.994Z,356.01
2024-04-05T09:05:56.017Z,356.39
2024-04-05T09:06:56.096Z,355.63
2024-04-05T09:07:56.243Z,355.63
2024-04-05T09:08:56.274Z,356.78
2024-04-05T09:09:59.307Z,358.33
2024-04-05T09:10:56.511Z,356.01
2024-04-05T09:11:56.515Z,354.86
2024-04-05T09:12:56.602Z,355.24
2024-04-05T09:13:56.719Z,356.39
2024-04-05T09:14:56.767Z,356.39
2024-04-05T09:15:56.861Z,355.63
2024-04-05T09:16:56.966Z,355.24
2024-04-05T09:17:56.997Z,356.01
2024-04-05T09:18:57.131Z,354.86
2024-04-05T09:19:57.199Z,356.01
2024-04-05T09:20:57.271Z,355.63
2024-04-05T09:21:57.338Z,355.24
2024-04-05T09:22:57.526Z,356.39
2024-04-05T09:23:57.545Z,357.16
2024-04-05T09:24:57.607Z,357.16
2024-04-05T09:25:57.728Z,358.33
2024-04-05T09:26:57.910Z,354.86
2024-04-05T09:27:57.873Z,354.86
2024-04-05T09:28:57.983Z,355.24
2024-04-05T09:29:58.010Z,356.39
2024-04-05T09:30:58.087Z,357.16
2024-04-05T09:31:58.208Z,355.24
2024-04-05T09:32:58.264Z,353.72
2024-04-05T09:33:58.314Z,355.63
2024-04-05T09:34:58.470Z,354.86
2024-04-05T09:35:58.480Z,355.24
2024-04-05T09:36:58.563Z,355.63
2024-04-05T09:37:58.701Z,355.63
2024-04-05T09:38:58.744Z,354.48
2024-04-05T09:39:58.830Z,354.86
2024-04-05T09:40:58.939Z,354.86
2024-04-05T09:41:59.006Z,356.78
2024-04-05T09:42:59.089Z,354.10
2024-04-05T09:44:07.760Z,354.86
2024-04-05T09:44:59.253Z,355.24
2024-04-05T09:45:59.339Z,354.48
2024-04-05T09:46:59.515Z,353.72
2024-04-05T09:47:59.508Z,356.39
2024-04-05T09:48:59.581Z,354.10
2024-04-05T09:49:59.750Z,356.39
2024-04-05T09:50:59.760Z,357.16
2024-04-05T09:51:59.803Z,353.72
2024-04-05T09:52:59.923Z,356.01
2024-04-05T09:53:59.968Z,356.78
2024-04-05T09:55:00.101Z,357.16
2024-04-05T09:56:00.179Z,356.01
2024-04-05T09:57:00.191Z,353.72
2024-04-05T09:58:00.268Z,354.86
2024-04-05T09:59:00.353Z,354.10
2024-04-05T10:00:00.448Z,353.72
2024-04-05T10:01:00.515Z,356.01
2024-04-05T10:02:00.657Z,356.01
2024-04-05T10:03:00.692Z,353.35
2024-04-05T10:04:00.790Z,354.10
2024-04-05T10:05:00.879Z,354.48
2024-04-05T10:06:00.954Z,354.86
2024-04-05T10:07:01.042Z,354.48
2024-04-05T10:08:01.100Z,354.48
2024-04-05T10:09:01.169Z,353.72
2024-04-05T10:10:01.257Z,356.01
2024-04-05T10:11:01.394Z,352.97
2024-04-05T10:12:01.522Z,355.24
2024-04-05T10:13:01.505Z,356.01
2024-04-05T10:14:01.642Z,354.10
2024-04-05T10:15:01.652Z,353.35
2024-04-05T10:16:01.741Z,352.97
2024-04-05T10:17:01.828Z,354.48
2024-04-05T10:18:01.903Z,353.35
2024-04-05T10:19:01.936Z,354.10
2024-04-05T10:20:02.074Z,356.01
2024-04-05T10:21:02.098Z,354.86
2024-04-05T10:22:02.185Z,354.86
2024-04-05T10:23:02.321Z,353.35
2024-04-05T10:24:02.346Z,354.48
2024-04-05T10:25:02.385Z,356.01
2024-04-05T10:26:02.468Z,354.10
2024-04-05T10:27:02.573Z,355.24
2024-04-05T10:28:02.634Z,354.86
2024-04-05T10:29:02.720Z,354.10
2024-04-05T10:30:02.815Z,355.24
2024-04-05T10:31:02.898Z,354.86
2024-04-05T10:32:03.000Z,353.72
2024-04-05T10:33:03.051Z,355.24
2024-04-05T10:34:03.147Z,353.72
2024-04-05T10:35:03.252Z,355.63
2024-04-05T10:36:03.321Z,354.48
2024-04-05T10:37:03.387Z,354.48
2024-04-05T10:38:14.498Z,352.59
2024-04-05T10:39:03.550Z,354.48
2024-04-05T10:40:03.623Z,352.22
2024-04-05T10:41:03.827Z,354.48
2024-04-05T10:42:03.767Z,355.24
2024-04-05T10:43:03.847Z,352.97
2024-04-05T10:44:03.999Z,354.48
2024-04-05T10:45:04.038Z,355.24
2024-04-05T10:46:04.139Z,352.22
2024-04-05T10:47:05.278Z,354.10
2024-04-05T10:48:04.310Z,353.35
2024-04-05T10:49:04.378Z,351.84
2024-04-05T10:50:04.482Z,351.84
2024-04-05T10:51:04.559Z,352.22
2024-04-05T10:52:04.666Z,351.47
2024-04-05T10:53:04.709Z,352.97
2024-04-05T10:54:04.810Z,353.72
2024-04-05T10:55:04.893Z,352.97
2024-04-05T10:56:04.982Z,352.59
2024-04-05T10:57:05.070Z,352.59
2024-04-05T10:58:05.146Z,352.59
2024-04-05T10:59:06.833Z,351.47
2024-04-05T11:00:05.322Z,352.22
2024-04-05T11:01:05.384Z,350.35
2024-04-05T11:02:05.443Z,353.72
2024-04-05T11:03:05.573Z,353.72
2024-04-05T11:04:05.602Z,350.72
2024-04-05T11:05:05.675Z,352.59
2024-04-05T11:06:05.747Z,350.72
2024-04-05T11:07:05.852Z,351.84
2024-04-05T11:08:05.954Z,352.97
2024-04-05T11:09:06.003Z,352.59
2024-04-05T11:10:10.991Z,351.84
2024-04-05T11:11:06.161Z,352.97
2024-04-05T11:12:06.256Z,350.35
2024-04-05T11:13:06.355Z,352.22
2024-04-05T11:14:06.462Z,351.47
2024-04-05T11:15:06.544Z,350.72
2024-04-05T11:16:06.656Z,352.59
2024-04-05T11:17:06.830Z,352.97
2024-04-05T11:18:06.855Z,351.84
2024-04-05T11:19:07.003Z,352.22
2024-04-05T11:20:06.984Z,353.35
2024-04-05T11:21:07.130Z,350.35
2024-04-05T11:22:07.153Z,352.59
2024-04-05T11:23:07.224Z,351.84
2024-04-05T11:24:07.300Z,352.22
2024-04-05T11:25:07.496Z,350.72
2024-04-05T11:26:07.469Z,352.22
2024-04-05T11:27:13.553Z,349.98
2024-04-05T11:28:07.625Z,351.10
2024-04-05T11:29:09.198Z,352.22
2024-04-05T11:30:07.800Z,351.47
2024-04-05T11:31:07.923Z,351.47
2024-04-05T11:32:07.969Z,352.97
2024-04-05T11:33:08.046Z,351.47
2024-04-05T11:34:08.133Z,353.72
2024-04-05T11:35:08.215Z,350.72
2024-04-05T11:36:08.312Z,352.59
2024-04-05T11:37:08.381Z,352.59
2024-04-05T11:38:08.459Z,352.59
2024-04-05T11:39:08.547Z,351.47
2024-04-05T11:40:08.621Z,352.22
2024-04-05T11:41:08.722Z,352.59
2024-04-05T11:42:08.788Z,353.72
2024-04-05T11:43:08.865Z,353.72
2024-04-05T11:44:08.948Z,351.10
2024-04-05T11:45:09.053Z,352.97
2024-04-05T11:46:09.147Z,348.87
2024-04-05T11:47:09.157Z,349.24
2024-04-05T11:48:09.283Z,351.84
2024-04-05T11:49:09.359Z,348.50
2024-04-05T11:50:09.406Z,352.59
2024-04-05T11:51:09.502Z,347.77
2024-04-05T11:52:09.591Z,350.35
2024-04-05T11:53:09.667Z,350.35
2024-04-05T11:54:09.767Z,350.72
2024-04-05T11:55:09.877Z,351.47
2024-04-05T11:56:09.967Z,349.98
2024-04-05T11:57:10.000Z,351.84
2024-04-05T11:58:10.072Z,349.61
2024-04-05T11:59:10.158Z,351.10
2024-04-05T12:00:10.258Z,350.35
2024-04-05T12:01:10.340Z,349.61
2024-04-05T12:02:10.459Z,351.84
2024-04-05T12:03:10.503Z,350.72
2024-04-05T12:04:10.590Z,351.10
2024-04-05T12:05:10.691Z,351.10
2024-04-05T12:06:10.763Z,349.61
2024-04-05T12:07:10.828Z,349.24
2024-04-05T12:08:13.381Z,348.50
2024-04-05T12:09:10.989Z,349.98
2024-04-05T12:10:11.100Z,351.84
2024-04-05T12:11:11.160Z,349.98
2024-04-05T12:12:11.311Z,351.10
2024-04-05T12:13:11.329Z,349.98
2024-04-05T12:14:14.593Z,349.98
2024-04-05T12:15:11.510Z,350.72
2024-04-05T12:16:11.599Z,348.50
2024-04-05T12:17:11.732Z,349.98
2024-04-05T12:18:11.738Z,349.98
2024-04-05T12:19:11.808Z,349.98
2024-04-05T12:20:12.788Z,349.24
2024-04-05T12:21:12.124Z,350.35
2024-04-05T12:22:12.058Z,350.72
2024-04-05T12:23:12.130Z,350.72
2024-04-05T12:24:12.215Z,349.98
2024-04-05T12:25:12.326Z,349.98
2024-04-05T12:26:14.089Z,350.72
2024-04-05T12:27:16.891Z,351.47
2024-04-05T12:28:12.571Z,349.98
2024-04-05T12:29:12.641Z,351.47
2024-04-05T12:30:12.731Z,350.72
2024-04-05T12:31:12.827Z,349.61